createdAt,value
2023-04-10T00:00:45.761Z,48.94
2023-04-10T00:03:14.153Z,49.65
2023-04-10T00:05:42.318Z,48.37
2023-04-10T00:08:10.551Z,49.13
2023-04-10T00:10:38.814Z,48.28
2023-04-10T00:13:08.402Z,48.21
2023-04-10T00:15:36.426Z,48.40
2023-04-10T00:18:04.678Z,48.48
2023-04-10T00:20:32.860Z,48.49
2023-04-10T00:23:00.899Z,48.44
2023-04-10T00:25:29.341Z,48.39
2023-04-10T00:27:57.331Z,48.33
2023-04-10T00:30:26.742Z,48.68
2023-04-10T00:32:55.140Z,48.42
2023-04-10T00:35:23.289Z,48.59
2023-04-10T00:37:51.436Z,48.56
2023-04-10T00:40:20.096Z,48.79
2023-04-10T00:42:50.064Z,48.54
2023-04-10T00:45:20.450Z,48.79
2023-04-10T00:47:50.331Z,48.38
2023-04-10T00:50:18.785Z,48.18
2023-04-10T00:52:46.996Z,48.30
2023-04-10T00:55:15.929Z,48.73
2023-04-10T00:57:46.316Z,48.49
2023-04-10T01:00:15.445Z,48.26
2023-04-10T01:02:44.053Z,48.37
2023-04-10T01:05:14.263Z,48.04
2023-04-10T01:07:55.505Z,48.80
2023-04-10T01:10:31.690Z,48.91
2023-04-10T01:13:09.818Z,48.85
2023-04-10T01:15:45.102Z,49.46
2023-04-10T01:18:20.484Z,49.91
2023-04-10T01:20:50.135Z,50.22
2023-04-10T01:23:44.365Z,49.63
2023-04-10T01:26:14.530Z,51.07
2023-04-10T01:29:01.393Z,49.59
2023-04-10T01:31:38.541Z,50.02
2023-04-10T01:34:10.624Z,49.23
2023-04-10T01:36:46.885Z,49.12
2023-04-10T01:39:18.321Z,49.46
2023-04-10T01:41:48.996Z,49.47
2023-04-10T01:44:22.611Z,49.54
2023-04-10T01:46:51.563Z,49.68
2023-04-10T01:49:20.871Z,49.35
2023-04-10T01:51:50.354Z,49.29
2023-04-10T01:54:19.755Z,49.90
2023-04-10T01:56:48.143Z,50.30
2023-04-10T01:59:18.307Z,50.05
2023-04-10T02:01:46.960Z,49.88
2023-04-10T02:04:15.641Z,49.78
2023-04-10T02:06:52.567Z,49.47
2023-04-10T02:09:32.154Z,49.41
2023-04-10T02:12:05.767Z,49.39
2023-04-10T02:14:39.456Z,49.40
2023-04-10T02:17:09.358Z,49.26
2023-04-10T02:19:39.644Z,49.28
2023-04-10T02:22:08.722Z,48.77
2023-04-10T02:24:36.799Z,48.73
2023-04-10T02:27:05.401Z,48.56
2023-04-10T02:29:34.988Z,48.37
2023-04-10T02:32:04.945Z,48.39
2023-04-10T02:34:33.104Z,48.26
2023-04-10T02:37:01.095Z,48.82
2023-04-10T02:39:30.295Z,48.52
2023-04-10T02:41:58.601Z,48.36
2023-04-10T02:44:27.097Z,48.54
2023-04-10T02:46:56.600Z,48.33
2023-04-10T02:49:25.033Z,48.43
2023-04-10T02:51:53.025Z,48.71
2023-04-10T02:54:21.782Z,48.83
2023-04-10T02:56:50.076Z,49.19
2023-04-10T02:59:18.090Z,49.06
2023-04-10T03:01:47.984Z,50.01
2023-04-10T03:04:17.942Z,50.35
2023-04-10T03:06:46.411Z,49.97
2023-04-10T03:09:14.492Z,51.10
2023-04-10T03:11:42.999Z,51.33
2023-04-10T03:14:11.155Z,50.25
2023-04-10T03:16:39.377Z,49.77
2023-04-10T03:19:07.650Z,50.60
2023-04-10T03:21:37.054Z,49.85
2023-04-10T03:24:06.111Z,49.40
2023-04-10T03:26:34.713Z,49.09
2023-04-10T03:29:02.872Z,48.93
2023-04-10T03:31:31.247Z,49.67
2023-04-10T03:33:59.932Z,49.05
2023-04-10T03:36:28.430Z,49.20
2023-04-10T03:38:57.736Z,50.18
2023-04-10T03:41:26.425Z,50.36
2023-04-10T03:43:54.814Z,49.15
2023-04-10T03:46:23.423Z,48.94
2023-04-10T03:48:54.183Z,49.29
2023-04-10T03:51:24.512Z,49.64
2023-04-10T03:53:53.408Z,49.58
2023-04-10T03:56:23.059Z,50.27
2023-04-10T03:58:51.111Z,51.28
2023-04-10T04:01:22.168Z,52.40
2023-04-10T04:03:55.979Z,52.28
2023-04-10T04:06:25.635Z,52.48
2023-04-10T04:08:54.396Z,53.77
2023-04-10T04:11:24.332Z,54.02
2023-04-10T04:13:53.024Z,54.15
2023-04-10T04:16:24.751Z,54.68
2023-04-10T04:18:52.955Z,54.49
2023-04-10T04:21:21.191Z,52.13
2023-04-10T04:23:49.741Z,51.78
2023-04-10T04:26:25.063Z,51.62
2023-04-10T04:28:53.789Z,51.20
2023-04-10T04:31:22.118Z,51.28
2023-04-10T04:33:50.305Z,51.19
2023-04-10T04:36:21.274Z,50.85
2023-04-10T04:38:52.882Z,50.32
2023-04-10T04:41:25.651Z,50.24
2023-04-10T04:43:55.957Z,50.05
2023-04-10T04:46:24.643Z,50.37
2023-04-10T04:48:53.127Z,50.30
2023-04-10T04:51:21.521Z,49.98
2023-04-10T04:53:50.013Z,50.37
2023-04-10T04:56:22.704Z,50.47
2023-04-10T04:58:52.509Z,50.55
2023-04-10T05:01:22.264Z,50.23
2023-04-10T05:03:52.053Z,50.12
2023-04-10T05:06:21.691Z,50.05
2023-04-10T05:08:50.086Z,49.89
2023-04-10T05:11:19.841Z,49.61
2023-04-10T05:13:52.189Z,49.65
2023-04-10T05:16:23.199Z,50.05
2023-04-10T05:18:51.934Z,50.93
2023-04-10T05:21:20.312Z,50.68
2023-04-10T05:23:49.651Z,50.67
2023-04-10T05:26:18.213Z,50.94
2023-04-10T05:28:47.440Z,52.22
2023-04-10T05:31:17.071Z,52.80
2023-04-10T05:33:45.899Z,51.91
2023-04-10T05:36:14.419Z,51.71
2023-04-10T05:38:42.960Z,51.77
2023-04-10T05:41:11.983Z,51.22
2023-04-10T05:43:39.976Z,51.08
2023-04-10T05:46:08.375Z,50.07
2023-04-10T05:48:40.189Z,49.93
2023-04-10T05:51:11.340Z,50.24
2023-04-10T05:53:39.370Z,50.05
2023-04-10T05:56:12.270Z,50.53
2023-04-10T05:58:40.769Z,51.02
2023-04-10T06:01:09.026Z,51.04
2023-04-10T06:03:39.259Z,51.82
2023-04-10T06:06:08.856Z,51.82
2023-04-10T06:08:36.942Z,51.84
2023-04-10T06:11:05.469Z,51.54
2023-04-10T06:13:36.112Z,52.70
2023-04-10T06:16:04.435Z,52.04
2023-04-10T06:18:32.783Z,52.42
2023-04-10T06:21:02.715Z,52.52
2023-04-10T06:23:31.010Z,52.38
2023-04-10T06:25:59.590Z,51.91
2023-04-10T06:28:27.971Z,52.20
2023-04-10T06:30:56.360Z,52.40
2023-04-10T06:33:29.333Z,52.47
2023-04-10T06:35:58.326Z,52.52
2023-04-10T06:38:28.114Z,53.01
2023-04-10T06:40:55.990Z,52.36
2023-04-10T06:43:23.914Z,51.48
2023-04-10T06:45:52.075Z,51.08
2023-04-10T06:48:20.427Z,51.99
2023-04-10T06:50:48.412Z,52.49
2023-04-10T06:53:16.600Z,52.17
2023-04-10T06:55:45.892Z,52.05
2023-04-10T06:58:13.945Z,52.00
2023-04-10T07:00:42.308Z,51.87
2023-04-10T07:03:10.392Z,51.33
2023-04-10T07:05:40.127Z,51.26
2023-04-10T07:08:10.539Z,51.77
2023-04-10T07:10:39.531Z,51.39
2023-04-10T07:13:08.888Z,51.67
2023-04-10T07:15:37.054Z,51.29
2023-04-10T07:18:07.791Z,50.94
2023-04-10T07:20:35.844Z,51.42
2023-04-10T07:23:04.086Z,51.69
2023-04-10T07:25:32.151Z,51.16
2023-04-10T07:28:00.135Z,50.69
2023-04-10T07:30:29.939Z,51.02
2023-04-10T07:32:58.335Z,50.73
2023-04-10T07:35:27.116Z,50.01
2023-04-10T07:37:55.640Z,50.37
2023-04-10T07:40:23.626Z,50.35
2023-04-10T07:42:53.806Z,50.00
2023-04-10T07:45:22.335Z,50.00
2023-04-10T07:47:51.709Z,50.00
2023-04-10T07:50:19.902Z,49.92
2023-04-10T07:52:48.194Z,49.57
2023-04-10T07:55:16.426Z,49.54
2023-04-10T07:57:44.468Z,49.57
2023-04-10T08:00:14.295Z,49.36
2023-04-10T08:02:43.885Z,49.23
2023-04-10T08:05:13.403Z,48.99
2023-04-10T08:07:41.508Z,49.20
2023-04-10T08:10:10.744Z,48.83
2023-04-10T08:12:38.958Z,48.61
2023-04-10T08:15:08.665Z,48.31
2023-04-10T08:17:37.009Z,48.20
2023-04-10T08:20:06.583Z,48.60
2023-04-10T08:22:35.975Z,47.88
2023-04-10T08:25:04.658Z,48.01
2023-04-10T08:27:32.726Z,47.87
2023-04-10T08:30:00.840Z,47.90
2023-04-10T08:32:30.604Z,47.88
2023-04-10T08:34:58.820Z,47.78
2023-04-10T08:37:27.536Z,47.61
2023-04-10T08:39:57.298Z,47.60
2023-04-10T08:42:25.939Z,47.45
2023-04-10T08:44:55.272Z,47.24
2023-04-10T08:47:28.846Z,46.91
2023-04-10T08:49:58.734Z,46.80
2023-04-10T08:52:28.802Z,46.79
2023-04-10T08:55:00.699Z,46.27
2023-04-10T08:57:30.514Z,46.40
2023-04-10T09:00:04.278Z,46.31
2023-04-10T09:02:42.838Z,46.04
2023-04-10T09:05:13.444Z,45.40
2023-04-10T09:07:42.106Z,45.69
2023-04-10T09:10:11.763Z,45.68
2023-04-10T09:12:49.732Z,45.58
2023-04-10T09:15:18.188Z,43.94
2023-04-10T09:17:57.416Z,45.72
2023-04-10T09:20:27.829Z,43.27
2023-04-10T09:22:55.969Z,43.79
2023-04-10T09:25:33.982Z,45.24
2023-04-10T09:28:04.682Z,42.24
2023-04-10T09:30:41.099Z,43.73
2023-04-10T09:33:23.669Z,41.61
2023-04-10T09:35:51.847Z,41.90
2023-04-10T09:38:22.339Z,43.58
2023-04-10T09:40:53.639Z,44.31
2023-04-10T09:43:28.015Z,43.73
2023-04-10T09:45:57.422Z,44.13
2023-04-10T09:48:27.618Z,44.40
2023-04-10T09:50:55.652Z,43.75
2023-04-10T09:53:23.748Z,42.38
2023-04-10T09:55:53.362Z,43.50
2023-04-10T09:58:22.134Z,43.18
2023-04-10T10:00:50.577Z,43.70
2023-04-10T10:03:21.116Z,42.13
2023-04-10T10:05:53.479Z,43.17
2023-04-10T10:08:23.836Z,42.99
2023-04-10T10:10:55.903Z,43.10
2023-04-10T10:13:29.289Z,42.37
2023-04-10T10:16:07.503Z,42.25
2023-04-10T10:18:45.087Z,41.08
2023-04-10T10:21:16.607Z,42.31
2023-04-10T10:23:46.322Z,42.99
2023-04-10T10:26:16.295Z,42.46
2023-04-10T10:28:47.587Z,42.48
2023-04-10T10:31:17.598Z,42.74
2023-04-10T10:33:47.101Z,42.54
2023-04-10T10:36:17.101Z,42.30
2023-04-10T10:38:54.707Z,42.02
2023-04-10T10:41:29.837Z,41.29
2023-04-10T10:44:09.657Z,40.98
2023-04-10T10:46:43.994Z,39.85
2023-04-10T10:49:13.950Z,41.37
2023-04-10T10:51:46.709Z,41.20
2023-04-10T10:54:29.056Z,41.38
2023-04-10T10:56:58.618Z,39.90
2023-04-10T10:59:58.297Z,41.64
2023-04-10T11:02:27.244Z,38.85
2023-04-10T11:04:55.949Z,41.63
2023-04-10T11:08:02.978Z,41.24
2023-04-10T11:11:01.576Z,39.03
2023-04-10T11:13:31.055Z,39.25
2023-04-10T11:16:01.387Z,41.51
2023-04-10T11:19:13.353Z,41.41
2023-04-10T11:22:03.540Z,38.17
2023-04-10T11:24:59.574Z,37.86
2023-04-10T11:27:46.421Z,38.18
2023-04-10T11:30:42.279Z,38.20
2023-04-10T11:33:18.899Z,37.91
2023-04-10T11:35:47.416Z,41.31
2023-04-10T11:38:18.169Z,40.71
2023-04-10T11:41:02.915Z,40.56
2023-04-10T11:43:31.776Z,37.79
2023-04-10T11:46:03.095Z,39.79
2023-04-10T11:48:33.665Z,40.29
2023-04-10T11:51:09.468Z,41.00
2023-04-10T11:53:43.212Z,39.14
2023-04-10T11:56:22.608Z,40.66
2023-04-10T11:58:54.895Z,38.84
2023-04-10T12:01:24.788Z,40.40
2023-04-10T12:03:55.265Z,40.90
2023-04-10T12:06:25.952Z,40.40
2023-04-10T12:09:01.723Z,40.31
2023-04-10T12:11:35.361Z,40.46
2023-04-10T12:14:03.878Z,38.73
2023-04-10T12:16:33.726Z,39.38
2023-04-10T12:19:01.764Z,40.25
2023-04-10T12:21:31.205Z,39.38
2023-04-10T12:23:59.259Z,39.58
2023-04-10T12:26:27.343Z,40.10
2023-04-10T12:28:59.021Z,39.42
2023-04-10T12:31:31.318Z,39.24
2023-04-10T12:34:01.170Z,38.88
2023-04-10T12:36:30.561Z,40.14
2023-04-10T12:38:59.233Z,39.03
2023-04-10T12:41:29.673Z,39.68
2023-04-10T12:44:10.874Z,39.41
2023-04-10T12:46:41.752Z,36.58
2023-04-10T12:49:12.095Z,39.01
2023-04-10T12:51:47.136Z,39.59
2023-04-10T12:54:32.154Z,37.88
2023-04-10T12:57:01.506Z,36.39
2023-04-10T12:59:31.907Z,39.14
2023-04-10T13:02:00.135Z,39.14
2023-04-10T13:04:31.308Z,38.86
2023-04-10T13:07:02.808Z,39.77
2023-04-10T13:09:31.224Z,39.42
2023-04-10T13:11:59.305Z,38.35
2023-04-10T13:14:27.508Z,39.53
2023-04-10T13:16:57.090Z,39.38
2023-04-10T13:19:25.078Z,39.34
2023-04-10T13:21:53.054Z,38.99
2023-04-10T13:24:21.345Z,39.02
2023-04-10T13:26:49.235Z,38.53
2023-04-10T13:29:17.226Z,37.75
2023-04-10T13:31:45.601Z,38.12
2023-04-10T13:34:14.911Z,37.95
2023-04-10T13:36:43.099Z,37.34
2023-04-10T13:39:11.472Z,37.87
2023-04-10T13:41:39.501Z,38.11
2023-04-10T13:44:09.177Z,38.45
2023-04-10T13:46:37.522Z,37.67
2023-04-10T13:49:05.510Z,38.72
2023-04-10T13:51:34.779Z,37.80
2023-04-10T13:54:04.698Z,37.04
2023-04-10T13:56:32.582Z,38.36
2023-04-10T13:59:00.574Z,37.66
2023-04-10T14:01:28.768Z,37.46
2023-04-10T14:03:57.283Z,36.92
2023-04-10T14:06:25.356Z,38.29
2023-04-10T14:08:54.855Z,38.45
2023-04-10T14:11:23.247Z,37.94
2023-04-10T14:13:51.273Z,38.76
2023-04-10T14:16:19.389Z,38.59
2023-04-10T14:18:47.882Z,38.57
2023-04-10T14:21:15.765Z,38.75
2023-04-10T14:23:46.711Z,38.83
2023-04-10T14:26:16.321Z,38.63
2023-04-10T14:28:44.236Z,38.35
2023-04-10T14:31:12.507Z,38.82
2023-04-10T14:33:40.780Z,38.34
2023-04-10T14:36:09.449Z,37.77
2023-04-10T14:38:37.729Z,37.83
2023-04-10T14:41:06.385Z,38.09
2023-04-10T14:43:35.726Z,37.93
2023-04-10T14:46:03.654Z,37.63
2023-04-10T14:48:32.034Z,38.21
2023-04-10T14:51:01.328Z,38.20
2023-04-10T14:53:29.334Z,37.95
2023-04-10T14:55:57.741Z,37.37
2023-04-10T14:58:25.972Z,37.61
2023-04-10T15:00:55.404Z,36.68
2023-04-10T15:03:25.328Z,37.27
2023-04-10T15:06:00.227Z,37.56
2023-04-10T15:08:28.516Z,35.89
2023-04-10T15:10:56.503Z,37.39
2023-04-10T15:13:24.698Z,36.54
2023-04-10T15:15:52.959Z,36.51
2023-04-10T15:18:22.297Z,36.63
2023-04-10T15:20:52.508Z,36.44
2023-04-10T15:23:20.728Z,36.32
2023-04-10T15:25:48.784Z,36.86
2023-04-10T15:28:16.825Z,36.37
2023-04-10T15:30:45.694Z,36.17
2023-04-10T15:33:13.668Z,36.68
2023-04-10T15:35:42.942Z,36.69
2023-04-10T15:38:12.822Z,36.14
2023-04-10T15:40:40.782Z,34.43
2023-04-10T15:43:08.767Z,35.17
2023-04-10T15:45:37.366Z,34.61
2023-04-10T15:48:06.060Z,35.52
2023-04-10T15:50:35.082Z,34.39
2023-04-10T15:53:04.821Z,36.12
2023-04-10T15:55:33.048Z,35.31
2023-04-10T15:58:02.562Z,35.99
2023-04-10T16:00:31.077Z,35.58
2023-04-10T16:02:59.575Z,35.86
2023-04-10T16:05:27.913Z,35.69
2023-04-10T16:07:56.143Z,35.51
2023-04-10T16:10:25.676Z,35.76
2023-04-10T16:12:53.862Z,35.86
2023-04-10T16:15:21.846Z,35.42
2023-04-10T16:17:50.158Z,35.85
2023-04-10T16:20:18.976Z,36.29
2023-04-10T16:22:47.086Z,35.92
2023-04-10T16:25:16.933Z,36.45
2023-04-10T16:27:47.257Z,36.32
2023-04-10T16:30:15.761Z,36.51
2023-04-10T16:32:43.776Z,36.72
2023-04-10T16:35:11.866Z,36.48
2023-04-10T16:37:40.362Z,36.54
2023-04-10T16:40:09.316Z,36.80
2023-04-10T16:42:37.414Z,36.90
2023-04-10T16:45:08.400Z,37.12
2023-04-10T16:47:36.587Z,37.24
2023-04-10T16:50:04.924Z,37.35
2023-04-10T16:52:33.275Z,37.36
2023-04-10T16:55:01.509Z,37.68
2023-04-10T16:57:32.060Z,37.84
2023-04-10T17:00:00.501Z,38.07
2023-04-10T17:02:30.398Z,38.24
2023-04-10T17:04:58.580Z,38.56
2023-04-10T17:07:26.851Z,38.79
2023-04-10T17:09:54.820Z,38.81
2023-04-10T17:12:22.843Z,38.86
2023-04-10T17:14:52.390Z,38.99
2023-04-10T17:17:20.533Z,39.25
2023-04-10T17:19:50.325Z,39.44
2023-04-10T17:22:20.571Z,39.22
2023-04-10T17:24:48.545Z,39.33
2023-04-10T17:27:18.893Z,39.32
2023-04-10T17:29:47.165Z,39.37
2023-04-10T17:32:15.077Z,39.53
2023-04-10T17:34:43.012Z,39.75
2023-04-10T17:37:12.600Z,39.70
2023-04-10T17:39:40.513Z,39.77
2023-04-10T17:42:08.506Z,39.84
2023-04-10T17:44:36.705Z,40.03
2023-04-10T17:47:05.193Z,40.06
2023-04-10T17:49:33.174Z,40.12
2023-04-10T17:52:01.377Z,40.23
2023-04-10T17:54:30.682Z,40.31
2023-04-10T17:56:58.676Z,40.34
2023-04-10T17:59:26.855Z,40.60
2023-04-10T18:01:55.014Z,40.67
2023-04-10T18:04:23.335Z,40.76
2023-04-10T18:06:51.300Z,40.53
2023-04-10T18:09:19.460Z,40.71
2023-04-10T18:11:50.741Z,40.95
2023-04-10T18:14:18.655Z,40.92
2023-04-10T18:16:46.703Z,41.28
2023-04-10T18:19:14.977Z,41.10
2023-04-10T18:21:42.990Z,41.21
2023-04-10T18:24:12.137Z,41.29
2023-04-10T18:26:40.631Z,41.63
2023-04-10T18:29:09.955Z,41.32
2023-04-10T18:31:37.912Z,41.10
2023-04-10T18:34:08.389Z,41.16
2023-04-10T18:36:36.896Z,41.47
2023-04-10T18:39:05.305Z,41.52
2023-04-10T18:41:36.988Z,41.39
2023-04-10T18:44:05.985Z,41.96
2023-04-10T18:46:35.895Z,41.64
2023-04-10T18:49:04.135Z,41.64
2023-04-10T18:51:34.625Z,41.92
2023-04-10T18:54:03.620Z,41.85
2023-04-10T18:56:31.744Z,41.55
2023-04-10T18:59:00.025Z,41.54
2023-04-10T19:01:28.983Z,41.69
2023-04-10T19:03:58.907Z,41.88
2023-04-10T19:06:27.888Z,42.05
2023-04-10T19:08:56.732Z,42.29
2023-04-10T19:11:24.874Z,42.25
2023-04-10T19:13:53.258Z,41.72
2023-04-10T19:16:21.738Z,42.08
2023-04-10T19:18:50.209Z,42.31
2023-04-10T19:21:19.612Z,42.17
2023-04-10T19:23:47.928Z,42.22
2023-04-10T19:26:16.015Z,42.25
2023-04-10T19:28:43.977Z,42.00
2023-04-10T19:31:12.974Z,42.34
2023-04-10T19:33:41.309Z,41.75
2023-04-10T19:36:09.776Z,42.11
2023-04-10T19:38:40.961Z,42.08
2023-04-10T19:41:15.790Z,42.59
2023-04-10T19:43:44.108Z,43.10
2023-04-10T19:46:19.221Z,42.50
2023-04-10T19:48:48.021Z,43.22
2023-04-10T19:51:16.092Z,42.67
2023-04-10T19:53:45.510Z,42.73
2023-04-10T19:56:13.692Z,43.05
2023-04-10T19:58:42.895Z,42.99
2023-04-10T20:01:12.334Z,43.05
2023-04-10T20:03:40.914Z,43.09
2023-04-10T20:06:10.165Z,43.35
2023-04-10T20:08:38.263Z,42.96
2023-04-10T20:11:09.450Z,42.84
2023-04-10T20:13:38.572Z,42.98
2023-04-10T20:16:07.866Z,43.03
2023-04-10T20:18:37.794Z,43.17
2023-04-10T20:21:07.848Z,43.32
2023-04-10T20:23:36.214Z,43.05
2023-04-10T20:26:04.171Z,43.16
2023-04-10T20:28:33.439Z,42.94
2023-04-10T20:31:01.728Z,43.30
2023-04-10T20:33:29.821Z,43.56
2023-04-10T20:35:57.838Z,43.33
2023-04-10T20:38:26.051Z,43.91
2023-04-10T20:40:54.244Z,43.26
2023-04-10T20:43:22.227Z,43.92
2023-04-10T20:45:51.750Z,44.27
2023-04-10T20:48:19.731Z,43.90
2023-04-10T20:50:49.233Z,44.20
2023-04-10T20:53:17.522Z,43.93
2023-04-10T20:55:47.571Z,44.23
2023-04-10T20:58:15.478Z,44.14
2023-04-10T21:00:43.670Z,44.17
2023-04-10T21:03:13.101Z,43.87
2023-04-10T21:05:42.040Z,43.91
2023-04-10T21:08:10.865Z,43.72
2023-04-10T21:10:43.942Z,43.97
2023-04-10T21:13:14.081Z,43.87
2023-04-10T21:15:42.265Z,43.76
2023-04-10T21:18:11.572Z,44.16
2023-04-10T21:20:44.691Z,43.66
2023-04-10T21:23:12.743Z,44.86
2023-04-10T21:25:41.040Z,44.27
2023-04-10T21:28:09.038Z,44.43
2023-04-10T21:30:36.924Z,44.33
2023-04-10T21:33:05.342Z,44.51
2023-04-10T21:35:33.442Z,44.67
2023-04-10T21:38:02.866Z,43.81
2023-04-10T21:40:34.368Z,44.50
2023-04-10T21:43:02.749Z,44.14
2023-04-10T21:45:32.159Z,44.71
2023-04-10T21:48:00.776Z,44.76
2023-04-10T21:50:28.812Z,44.61
2023-04-10T21:52:56.840Z,44.60
2023-04-10T21:55:26.527Z,44.46
2023-04-10T21:57:54.468Z,44.42
2023-04-10T22:00:23.193Z,44.55
2023-04-10T22:02:53.006Z,44.24
2023-04-10T22:05:24.721Z,44.21
2023-04-10T22:07:53.175Z,44.21
2023-04-10T22:10:21.205Z,44.55
2023-04-10T22:12:50.621Z,44.63
2023-04-10T22:15:19.815Z,44.54
2023-04-10T22:17:47.832Z,44.10
2023-04-10T22:20:15.891Z,44.04
2023-04-10T22:22:44.175Z,44.34
2023-04-10T22:25:12.085Z,44.66
2023-04-10T22:27:40.080Z,44.24
2023-04-10T22:30:10.921Z,43.97
2023-04-10T22:32:38.919Z,44.11
2023-04-10T22:35:08.291Z,44.24
2023-04-10T22:37:36.553Z,43.98
2023-04-10T22:40:05.911Z,44.19
2023-04-10T22:42:33.865Z,44.11
2023-04-10T22:45:02.153Z,44.86
2023-04-10T22:47:33.829Z,44.48
2023-04-10T22:50:02.143Z,44.28
2023-04-10T22:52:30.112Z,44.21
2023-04-10T22:54:58.292Z,44.04
2023-04-10T22:57:26.575Z,43.89
2023-04-10T22:59:54.731Z,44.09
2023-04-10T23:02:22.701Z,44.26
2023-04-10T23:04:52.274Z,44.39
2023-04-10T23:07:20.245Z,43.96
2023-04-10T23:09:48.140Z,44.04
2023-04-10T23:12:16.336Z,44.17
2023-04-10T23:14:44.278Z,43.81
2023-04-10T23:17:12.196Z,43.84
2023-04-10T23:19:40.458Z,43.70
2023-04-10T23:22:09.752Z,43.95
2023-04-10T23:24:38.690Z,43.98
2023-04-10T23:27:07.828Z,43.94
2023-04-10T23:29:35.860Z,43.48
2023-04-10T23:32:03.857Z,43.71
2023-04-10T23:34:32.066Z,43.53
2023-04-10T23:37:00.027Z,43.68
2023-04-10T23:39:29.315Z,43.82
2023-04-10T23:41:57.751Z,44.01
2023-04-10T23:44:25.823Z,43.77
2023-04-10T23:46:53.826Z,43.72
2023-04-10T23:49:22.090Z,43.79
2023-04-10T23:51:50.057Z,43.54
2023-04-10T23:54:18.030Z,43.69
2023-04-10T23:56:47.645Z,43.40
2023-04-10T23:59:17.014Z,43.38
